Terminal Aerodrome Forecast
Issued by NWS Brownsville, TX

Home | Current Version | Previous Version | Text Only | Print | Product List | Glossary On
Versions: 1 2 3 4 5 6 7 8 9 10 11 12 13 14 15 16 17 18 19 20 21 22 23 24 25 26
000
FTUS44 KBRO 162300
TAFHRL
TAF
KHRL 162336Z 1700/1724 18007KT P6SM FEW035 BKN250
     FM170300 15005KT P6SM OVC250
     FM171500 16009KT P6SM BKN025
     FM171800 16010KT P6SM BKN050 PROB30 1718/1721 5SM -TSRA
      BKN040CB
     FM172100 14014KT P6SM VCSH BKN050 PROB30 1721/1724 5SM -TSRA
      BKN040CB=

USA.gov is the U.S. government's official web portal to all federal, state and local government web resources and services.